createdAt,value
2019-05-01T00:02:32.929Z,76.72
2019-05-01T00:12:35.744Z,76.71
2019-05-01T00:22:36.469Z,75.15
2019-05-01T00:32:37.164Z,77.25
2019-05-01T00:42:37.814Z,75.44
2019-05-01T00:52:38.498Z,77.58
2019-05-01T01:02:39.179Z,74.65
2019-05-01T01:12:39.884Z,75.56
2019-05-01T01:22:40.527Z,75.24
2019-05-01T01:32:41.238Z,74.42
2019-05-01T01:42:48.487Z,74.26
2019-05-01T01:52:50.089Z,73.60
2019-05-01T02:03:04.101Z,74.45
2019-05-01T02:13:04.973Z,74.94
2019-05-01T02:23:05.744Z,75.68
2019-05-01T02:33:07.100Z,75.55
2019-05-01T02:43:09.820Z,75.64
2019-05-01T02:53:10.651Z,75.29
2019-05-01T03:03:11.402Z,75.34
2019-05-01T03:13:12.302Z,75.97
2019-05-01T03:23:12.981Z,74.73
2019-05-01T03:33:17.044Z,74.48
2019-05-01T03:43:22.000Z,76.77
2019-05-01T03:53:23.190Z,76.70
2019-05-01T04:03:23.962Z,75.96
2019-05-01T04:13:24.751Z,74.78
2019-05-01T04:23:26.275Z,75.94
2019-05-01T04:33:26.987Z,76.31
2019-05-01T04:43:27.798Z,74.62
2019-05-01T04:53:28.558Z,74.42
2019-05-01T05:03:31.392Z,71.76
2019-05-01T05:13:32.289Z,69.18
2019-05-01T05:23:33.204Z,66.07
2019-05-01T05:33:34.850Z,61.23
2019-05-01T05:43:35.543Z,67.70
2019-05-01T05:53:37.223Z,63.37
2019-05-01T06:03:38.444Z,56.10
2019-05-01T06:13:40.433Z,51.69
2019-05-01T06:23:42.367Z,54.93
2019-05-01T06:33:44.291Z,60.49
2019-05-01T06:43:46.421Z,53.58
2019-05-01T06:53:47.247Z,53.96
2019-05-01T07:04:03.388Z,55.56
2019-05-01T07:13:56.799Z,59.85
2019-05-01T07:23:57.853Z,66.34
2019-05-01T07:33:58.532Z,62.52
2019-05-01T07:44:00.887Z,62.55
2019-05-01T07:54:04.067Z,61.84
2019-05-01T08:04:06.041Z,60.76
2019-05-01T08:14:07.770Z,59.38
2019-05-01T08:24:09.429Z,59.40
2019-05-01T08:34:10.208Z,61.56
2019-05-01T08:44:10.941Z,60.70
2019-05-01T08:54:11.652Z,57.58
2019-05-01T09:04:13.405Z,55.06
2019-05-01T09:14:14.232Z,53.57
2019-05-01T09:24:15.063Z,53.23
2019-05-01T09:34:19.109Z,54.90
2019-05-01T09:44:18.598Z,56.51
2019-05-01T09:54:22.391Z,54.38
2019-05-01T10:04:25.359Z,52.94
2019-05-01T10:14:27.193Z,48.43
2019-05-01T10:24:32.171Z,47.92
2019-05-01T10:34:30.548Z,44.85
2019-05-01T10:44:31.306Z,44.80
2019-05-01T10:54:32.065Z,43.75
2019-05-01T11:04:32.845Z,49.18
2019-05-01T11:14:33.674Z,48.99
2019-05-01T11:24:34.442Z,43.99
2019-05-01T11:34:35.213Z,46.45
2019-05-01T11:44:36.038Z,45.10
2019-05-01T12:16:05.296Z,43.49
2019-05-01T12:26:05.956Z,43.36
2019-05-01T12:36:06.608Z,41.34
2019-05-01T12:46:07.809Z,39.65
2019-05-01T12:56:09.512Z,42.59
2019-05-01T13:06:10.239Z,44.81
2019-05-01T13:16:11.411Z,41.84
2019-05-01T13:26:14.329Z,40.96
2019-05-01T13:36:15.382Z,39.46
2019-05-01T13:46:16.272Z,39.81
2019-05-01T13:56:17.159Z,40.56
2019-05-01T14:06:19.101Z,41.66
2019-05-01T14:16:21.433Z,41.55
2019-05-01T14:26:23.231Z,39.64
2019-05-01T14:36:26.841Z,37.15
2019-05-01T14:46:27.581Z,37.15
2019-05-01T14:56:28.279Z,40.97
2019-05-01T15:06:31.792Z,40.58
2019-05-01T15:16:32.628Z,39.65
2019-05-01T15:26:33.372Z,39.18
2019-05-01T15:36:34.064Z,38.26
2019-05-01T15:46:34.935Z,37.06
2019-05-01T15:56:35.605Z,39.03
2019-05-01T16:06:36.226Z,37.35
2019-05-01T16:16:40.307Z,37.46
2019-05-01T16:26:41.348Z,38.08
2019-05-01T16:36:42.016Z,37.65
2019-05-01T16:46:42.797Z,36.71
2019-05-01T16:56:43.547Z,37.15
2019-05-01T17:06:45.472Z,36.44
2019-05-01T17:16:46.153Z,34.87
2019-05-01T17:26:47.831Z,37.53
2019-05-01T17:36:52.342Z,35.06
2019-05-01T17:46:53.015Z,41.33
2019-05-01T17:56:55.734Z,43.24
2019-05-01T18:06:59.577Z,42.64
2019-05-01T18:17:00.291Z,41.93
2019-05-01T18:27:00.943Z,44.99
2019-05-01T18:37:01.863Z,49.60
2019-05-01T18:47:02.951Z,54.85
2019-05-01T18:57:04.412Z,56.49
2019-05-01T19:07:05.095Z,58.19
2019-05-01T19:17:05.970Z,58.89
2019-05-01T19:27:14.214Z,62.45
2019-05-01T19:37:16.456Z,66.46
2019-05-01T19:47:15.740Z,64.52
2019-05-01T19:57:16.367Z,63.08
2019-05-01T20:07:21.412Z,60.63
2019-05-01T20:17:23.427Z,67.77
2019-05-01T20:27:27.649Z,71.62
2019-05-01T20:37:28.002Z,71.11
2019-05-01T20:47:35.254Z,67.32
2019-05-01T20:57:32.422Z,65.87
2019-05-01T21:07:35.125Z,65.66
2019-05-01T21:17:35.916Z,66.94
2019-05-01T21:27:37.055Z,67.88
2019-05-01T21:37:37.902Z,68.48
2019-05-01T21:47:44.605Z,68.63
2019-05-01T21:57:49.980Z,68.28
2019-05-01T22:07:48.016Z,68.88
2019-05-01T22:17:48.725Z,68.35
2019-05-01T22:27:49.479Z,69.65
2019-05-01T22:37:50.250Z,69.43
2019-05-01T22:47:52.131Z,69.77
2019-05-01T22:57:52.903Z,70.51
2019-05-01T23:07:53.622Z,74.29
2019-05-01T23:17:54.250Z,76.49
2019-05-01T23:27:55.126Z,78.59
2019-05-01T23:37:55.865Z,78.48
2019-05-01T23:47:58.635Z,78.72
2019-05-01T23:57:59.472Z,77.16
